createdAt,value
2023-11-07T00:00:01.111Z,45.30
2023-11-07T00:02:29.496Z,45.10
2023-11-07T00:04:58.274Z,45.20
2023-11-07T00:07:26.704Z,44.30
2023-11-07T00:09:56.735Z,44.20
2023-11-07T00:12:25.176Z,44.40
2023-11-07T00:14:53.539Z,44.40
2023-11-07T00:17:22.346Z,43.30
2023-11-07T00:19:50.466Z,43.00
2023-11-07T00:22:19.426Z,43.30
2023-11-07T00:24:48.421Z,42.90
2023-11-07T00:27:19.738Z,43.10
2023-11-07T00:29:48.579Z,43.40
2023-11-07T00:32:16.984Z,43.10
2023-11-07T00:34:45.212Z,43.30
2023-11-07T00:37:13.142Z,42.80
2023-11-07T00:39:41.060Z,42.90
2023-11-07T00:42:09.097Z,43.10
2023-11-07T00:44:38.339Z,42.20
2023-11-07T00:47:06.894Z,41.90
2023-11-07T00:49:34.803Z,41.90
2023-11-07T00:52:02.715Z,40.60
2023-11-07T00:54:30.626Z,39.90
2023-11-07T00:56:58.536Z,39.10
2023-11-07T00:59:26.442Z,37.60
2023-11-07T01:01:55.665Z,38.00
2023-11-07T01:04:24.869Z,38.40
2023-11-07T01:06:52.898Z,38.60
2023-11-07T01:09:21.003Z,39.10
2023-11-07T01:11:49.029Z,38.60
2023-11-07T01:14:16.937Z,38.60
2023-11-07T01:16:44.866Z,37.50
2023-11-07T01:19:14.273Z,36.00
2023-11-07T01:21:42.246Z,36.50
2023-11-07T01:24:10.519Z,36.40
2023-11-07T01:26:38.452Z,36.50
2023-11-07T01:29:06.336Z,36.00
2023-11-07T01:31:34.271Z,35.80
2023-11-07T01:34:02.311Z,35.40
2023-11-07T01:36:31.755Z,35.40
2023-11-07T01:38:59.691Z,34.90
2023-11-07T01:41:27.610Z,35.00
2023-11-07T01:43:55.507Z,35.60
2023-11-07T01:46:23.615Z,35.30
2023-11-07T01:48:51.732Z,35.80
2023-11-07T01:51:20.440Z,35.20
2023-11-07T01:53:50.242Z,35.80
2023-11-07T01:56:18.571Z,34.60
2023-11-07T01:58:46.803Z,34.70
2023-11-07T02:01:14.816Z,34.90
2023-11-07T02:03:42.824Z,34.00
2023-11-07T02:06:11.566Z,34.70
2023-11-07T02:08:39.577Z,34.90
2023-11-07T02:11:09.967Z,34.50
2023-11-07T02:13:38.020Z,31.30
2023-11-07T02:16:06.636Z,32.10
2023-11-07T02:18:34.593Z,32.60
2023-11-07T02:21:02.573Z,32.20
2023-11-07T02:23:33.692Z,32.00
2023-11-07T02:26:01.673Z,32.90
2023-11-07T02:28:29.774Z,33.40
2023-11-07T02:30:58.898Z,33.30
2023-11-07T02:33:26.894Z,33.70
2023-11-07T02:35:54.904Z,33.40
2023-11-07T02:38:23.792Z,33.50
2023-11-07T02:40:53.063Z,33.80
2023-11-07T02:43:21.584Z,34.00
2023-11-07T02:45:50.376Z,32.70
2023-11-07T02:48:18.542Z,32.20
2023-11-07T02:50:46.749Z,32.80
2023-11-07T02:53:15.311Z,33.00
2023-11-07T02:55:43.456Z,33.70
2023-11-07T02:58:14.597Z,32.70
2023-11-07T03:00:42.505Z,32.60
2023-11-07T03:03:11.029Z,32.20
2023-11-07T03:05:40.035Z,32.40
2023-11-07T03:08:09.252Z,33.80
2023-11-07T03:10:37.659Z,34.00
2023-11-07T03:13:05.663Z,34.40
2023-11-07T03:15:34.892Z,33.50
2023-11-07T03:18:02.897Z,33.30
2023-11-07T03:20:30.817Z,33.20
2023-11-07T03:22:58.721Z,33.80
2023-11-07T03:25:27.006Z,33.10
2023-11-07T03:27:55.158Z,32.40
2023-11-07T03:30:23.458Z,32.70
2023-11-07T03:32:52.771Z,33.00
2023-11-07T03:35:21.068Z,32.60
2023-11-07T03:37:48.951Z,32.10
2023-11-07T03:40:17.018Z,32.60
2023-11-07T03:42:44.928Z,32.90
2023-11-07T03:45:13.015Z,32.50
2023-11-07T03:47:41.119Z,33.10
2023-11-07T03:50:11.813Z,33.20
2023-11-07T03:52:39.719Z,33.20
2023-11-07T03:55:08.307Z,33.80
2023-11-07T03:57:36.163Z,34.20
2023-11-07T04:00:04.672Z,34.20
2023-11-07T04:02:32.691Z,34.80
2023-11-07T04:05:00.654Z,35.10
2023-11-07T04:07:29.906Z,34.00
2023-11-07T04:09:57.964Z,35.60
2023-11-07T04:12:25.888Z,36.30
2023-11-07T04:14:55.767Z,36.60
2023-11-07T04:17:23.747Z,37.20
2023-11-07T04:19:51.802Z,37.40
2023-11-07T04:22:19.910Z,38.60
2023-11-07T04:24:49.144Z,38.90
2023-11-07T04:27:17.036Z,39.00
2023-11-07T04:29:45.161Z,39.10
2023-11-07T04:32:13.133Z,39.10
2023-11-07T04:34:41.086Z,39.80
2023-11-07T04:37:09.093Z,40.30
2023-11-07T04:39:37.742Z,40.90
2023-11-07T04:42:08.406Z,40.90
2023-11-07T04:44:36.403Z,40.90
2023-11-07T04:47:07.039Z,41.70
2023-11-07T04:49:36.264Z,41.50
2023-11-07T04:52:04.518Z,41.40
2023-11-07T04:54:32.591Z,41.80
2023-11-07T04:57:00.748Z,41.40
2023-11-07T04:59:30.346Z,41.20
2023-11-07T05:01:58.362Z,41.70
2023-11-07T05:04:26.314Z,41.10
2023-11-07T05:06:55.221Z,40.40
2023-11-07T05:09:23.482Z,40.40
2023-11-07T05:11:51.992Z,40.30
2023-11-07T05:14:19.960Z,41.20
2023-11-07T05:16:49.831Z,40.90
2023-11-07T05:19:18.334Z,40.30
2023-11-07T05:21:46.271Z,40.70
2023-11-07T05:24:14.567Z,41.10
2023-11-07T05:26:44.975Z,40.40
2023-11-07T05:29:15.179Z,41.10
2023-11-07T05:31:43.562Z,40.70
2023-11-07T05:34:13.388Z,41.30
2023-11-07T05:36:41.303Z,41.00
2023-11-07T05:39:09.372Z,41.30
2023-11-07T05:41:37.349Z,41.90
2023-11-07T05:44:05.376Z,42.20
2023-11-07T05:46:33.318Z,41.80
2023-11-07T05:49:01.346Z,41.10
2023-11-07T05:51:30.646Z,41.00
2023-11-07T05:53:58.771Z,40.50
2023-11-07T05:56:26.648Z,40.90
2023-11-07T05:58:54.507Z,41.00
2023-11-07T06:01:22.853Z,41.30
2023-11-07T06:03:51.418Z,41.70
2023-11-07T06:06:19.673Z,41.80
2023-11-07T06:08:49.530Z,41.40
2023-11-07T06:11:17.851Z,41.00
2023-11-07T06:13:45.750Z,40.20
2023-11-07T06:16:14.142Z,40.20
2023-11-07T06:18:42.116Z,40.20
2023-11-07T06:21:10.486Z,40.30
2023-11-07T06:23:38.513Z,40.20
2023-11-07T06:26:09.366Z,40.20
2023-11-07T06:28:37.737Z,40.20
2023-11-07T06:31:06.465Z,38.60
2023-11-07T06:33:34.582Z,38.90
2023-11-07T06:36:02.635Z,39.20
2023-11-07T06:38:30.848Z,40.30
2023-11-07T06:40:58.762Z,40.20
2023-11-07T06:43:27.979Z,40.20
2023-11-07T06:45:55.946Z,40.20
2023-11-07T06:48:23.954Z,40.20
2023-11-07T06:50:52.462Z,39.60
2023-11-07T06:53:20.395Z,40.20
2023-11-07T06:55:48.473Z,40.00
2023-11-07T06:58:16.395Z,40.20
2023-11-07T07:00:45.670Z,39.60
2023-11-07T07:03:13.885Z,38.00
2023-11-07T07:05:41.889Z,38.70
2023-11-07T07:08:09.901Z,36.50
2023-11-07T07:10:39.411Z,36.50
2023-11-07T07:13:07.346Z,35.70
2023-11-07T07:15:35.196Z,35.70
2023-11-07T07:18:07.413Z,35.30
2023-11-07T07:20:37.898Z,36.20
2023-11-07T07:23:07.926Z,36.50
2023-11-07T07:25:37.470Z,36.00
2023-11-07T07:28:07.552Z,35.70
2023-11-07T07:30:38.851Z,36.50
2023-11-07T07:33:08.648Z,35.70
2023-11-07T07:35:38.738Z,34.70
2023-11-07T07:38:10.371Z,33.90
2023-11-07T07:40:39.389Z,33.90
2023-11-07T07:43:12.040Z,33.70
2023-11-07T07:45:43.476Z,33.70
2023-11-07T07:48:13.202Z,32.90
2023-11-07T07:50:43.010Z,32.90
2023-11-07T07:53:12.001Z,33.30
2023-11-07T07:55:44.880Z,33.90
2023-11-07T07:58:19.828Z,35.80
2023-11-07T08:00:50.502Z,35.00
2023-11-07T08:03:20.166Z,35.10
2023-11-07T08:05:48.555Z,33.70
2023-11-07T08:08:17.451Z,35.30
2023-11-07T08:10:49.631Z,32.10
2023-11-07T08:13:19.556Z,33.50
2023-11-07T08:15:51.202Z,32.60
2023-11-07T08:18:20.947Z,33.70
2023-11-07T08:20:48.938Z,31.20
2023-11-07T08:23:16.947Z,31.40
2023-11-07T08:25:44.911Z,31.40
2023-11-07T08:28:13.939Z,30.10
2023-11-07T08:30:45.181Z,28.40
2023-11-07T08:33:14.582Z,28.70
2023-11-07T08:35:44.805Z,28.00
2023-11-07T08:38:12.975Z,27.20
2023-11-07T08:40:40.956Z,27.20
2023-11-07T08:43:10.382Z,26.30
2023-11-07T08:45:38.328Z,27.40
2023-11-07T08:48:07.874Z,27.60
2023-11-07T08:50:37.172Z,29.10
2023-11-07T08:53:06.864Z,29.80
2023-11-07T08:55:35.183Z,29.60
2023-11-07T08:58:04.304Z,29.80
2023-11-07T09:00:33.595Z,31.40
2023-11-07T09:03:01.989Z,30.50
2023-11-07T09:05:30.045Z,31.30
2023-11-07T09:07:57.940Z,30.10
2023-11-07T09:10:27.536Z,31.40
2023-11-07T09:12:55.431Z,31.40
2023-11-07T09:15:25.172Z,32.60
2023-11-07T09:17:53.533Z,31.30
2023-11-07T09:20:21.533Z,30.50
2023-11-07T09:22:49.456Z,31.40
2023-11-07T09:25:17.367Z,31.20
2023-11-07T09:27:48.223Z,30.00
2023-11-07T09:30:16.573Z,29.40
2023-11-07T09:32:45.212Z,29.40
2023-11-07T09:35:13.371Z,28.70
2023-11-07T09:37:41.331Z,31.60
2023-11-07T09:40:12.151Z,31.50
2023-11-07T09:42:41.731Z,30.70
2023-11-07T09:45:15.882Z,31.60
2023-11-07T09:47:47.752Z,31.60
2023-11-07T09:50:17.465Z,31.70
2023-11-07T09:52:46.510Z,30.80
2023-11-07T09:55:16.918Z,31.70
2023-11-07T09:57:52.689Z,29.50
2023-11-07T10:00:27.002Z,28.70
2023-11-07T10:02:57.223Z,30.20
2023-11-07T10:05:26.246Z,30.00
2023-11-07T10:07:54.715Z,30.60
2023-11-07T10:10:22.680Z,30.90
2023-11-07T10:12:52.842Z,31.80
2023-11-07T10:15:22.277Z,30.90
2023-11-07T10:18:02.225Z,30.50
2023-11-07T10:20:30.772Z,29.90
2023-11-07T10:23:00.099Z,30.50
2023-11-07T10:25:30.185Z,31.80
2023-11-07T10:28:01.998Z,31.70
2023-11-07T10:30:37.760Z,32.00
2023-11-07T10:33:07.283Z,33.10
2023-11-07T10:35:51.635Z,35.60
2023-11-07T10:38:19.940Z,35.00
2023-11-07T10:40:49.069Z,37.90
2023-11-07T10:43:32.139Z,38.20
2023-11-07T10:46:03.174Z,40.20
2023-11-07T10:48:34.115Z,41.10
2023-11-07T10:51:05.154Z,39.60
2023-11-07T10:53:34.912Z,41.10
2023-11-07T10:56:05.712Z,41.10
2023-11-07T10:58:34.804Z,41.10
2023-11-07T11:01:05.590Z,42.40
2023-11-07T11:03:38.059Z,43.40
2023-11-07T11:06:08.185Z,45.20
2023-11-07T11:08:37.043Z,44.70
2023-11-07T11:11:07.192Z,44.70
2023-11-07T11:13:36.685Z,44.20
2023-11-07T11:16:06.504Z,41.20
2023-11-07T11:18:47.044Z,42.40
2023-11-07T11:21:23.991Z,44.10
2023-11-07T11:24:02.557Z,44.90
2023-11-07T11:26:37.923Z,44.60
2023-11-07T11:29:24.420Z,45.80
2023-11-07T11:31:52.825Z,45.70
2023-11-07T11:34:26.951Z,46.10
2023-11-07T11:36:57.681Z,45.40
2023-11-07T11:39:49.463Z,44.70
2023-11-07T11:42:17.525Z,45.60
2023-11-07T11:44:45.590Z,44.60
2023-11-07T11:47:46.953Z,45.70
2023-11-07T11:50:20.814Z,44.90
2023-11-07T11:52:48.757Z,42.70
2023-11-07T11:55:18.651Z,40.70
2023-11-07T11:58:12.177Z,41.10
2023-11-07T12:00:40.614Z,41.10
2023-11-07T12:03:17.226Z,42.50
2023-11-07T12:06:05.625Z,39.90
2023-11-07T12:08:38.535Z,39.70
2023-11-07T12:11:07.726Z,40.50
2023-11-07T12:13:36.107Z,39.30
2023-11-07T12:16:14.577Z,37.80
2023-11-07T12:18:43.643Z,36.50
2023-11-07T12:21:21.372Z,36.50
2023-11-07T12:23:49.423Z,37.50
2023-11-07T12:26:17.348Z,37.50
2023-11-07T12:28:45.544Z,37.80
2023-11-07T12:31:23.039Z,38.60
2023-11-07T12:33:53.678Z,39.90
2023-11-07T12:36:23.231Z,39.60
2023-11-07T12:38:51.286Z,39.70
2023-11-07T12:41:19.594Z,41.30
2023-11-07T12:43:47.842Z,41.10
2023-11-07T12:46:18.042Z,41.30
2023-11-07T12:48:47.075Z,39.90
2023-11-07T12:51:25.523Z,39.20
2023-11-07T12:53:54.781Z,40.10
2023-11-07T12:56:23.257Z,40.80
2023-11-07T12:58:51.176Z,40.10
2023-11-07T13:01:19.177Z,41.20
2023-11-07T13:03:47.140Z,41.20
2023-11-07T13:06:21.310Z,41.20
2023-11-07T13:08:50.730Z,39.80
2023-11-07T13:11:20.687Z,40.60
2023-11-07T13:13:50.457Z,39.60
2023-11-07T13:16:19.265Z,38.80
2023-11-07T13:18:48.533Z,39.50
2023-11-07T13:21:18.051Z,40.20
2023-11-07T13:23:46.400Z,39.90
2023-11-07T13:26:16.451Z,39.30
2023-11-07T13:28:45.206Z,37.60
2023-11-07T13:31:15.314Z,38.40
2023-11-07T13:33:47.157Z,38.90
2023-11-07T13:36:17.901Z,38.60
2023-11-07T13:38:47.890Z,38.80
2023-11-07T13:41:18.008Z,37.60
2023-11-07T13:43:46.041Z,38.20
2023-11-07T13:46:18.434Z,36.60
2023-11-07T13:48:46.997Z,37.40
2023-11-07T13:51:14.998Z,38.00
2023-11-07T13:53:42.948Z,36.00
2023-11-07T13:56:15.634Z,37.30
2023-11-07T13:58:45.226Z,37.20
2023-11-07T14:01:13.766Z,38.10
2023-11-07T14:03:42.471Z,38.40
2023-11-07T14:06:10.667Z,38.60
2023-11-07T14:08:38.639Z,36.50
2023-11-07T14:11:07.735Z,37.40
2023-11-07T14:13:35.848Z,36.60
2023-11-07T14:16:05.490Z,37.70
2023-11-07T14:18:33.505Z,38.80
2023-11-07T14:21:03.945Z,39.60
2023-11-07T14:23:32.159Z,40.20
2023-11-07T14:26:00.112Z,41.40
2023-11-07T14:28:28.373Z,43.90
2023-11-07T14:30:58.909Z,44.50
2023-11-07T14:33:30.859Z,46.00
2023-11-07T14:36:00.552Z,46.70
2023-11-07T14:38:35.154Z,46.40
2023-11-07T14:41:03.390Z,45.90
2023-11-07T14:43:32.730Z,45.90
2023-11-07T14:46:02.079Z,45.60
2023-11-07T14:48:31.532Z,45.70
2023-11-07T14:50:59.643Z,45.20
2023-11-07T14:53:28.151Z,45.20
2023-11-07T14:55:56.557Z,44.50
2023-11-07T14:58:25.942Z,43.20
2023-11-07T15:00:57.813Z,43.00
2023-11-07T15:03:26.271Z,44.00
2023-11-07T15:05:55.895Z,43.30
2023-11-07T15:08:24.160Z,43.50
2023-11-07T15:10:53.921Z,43.20
2023-11-07T15:13:21.860Z,43.60
2023-11-07T15:15:50.937Z,43.90
2023-11-07T15:18:24.431Z,42.60
2023-11-07T15:20:53.582Z,43.00
2023-11-07T15:23:23.098Z,42.10
2023-11-07T15:25:51.026Z,41.30
2023-11-07T15:28:19.269Z,41.50
2023-11-07T15:30:47.323Z,42.10
2023-11-07T15:33:15.380Z,41.70
2023-11-07T15:35:44.072Z,42.40
2023-11-07T15:38:11.949Z,42.60
2023-11-07T15:40:42.300Z,42.10
2023-11-07T15:43:10.601Z,42.70
2023-11-07T15:45:38.718Z,43.40
2023-11-07T15:48:11.030Z,42.60
2023-11-07T15:50:40.259Z,42.10
2023-11-07T15:53:09.882Z,40.80
2023-11-07T15:55:39.627Z,40.80
2023-11-07T15:58:09.831Z,39.80
2023-11-07T16:00:37.941Z,40.70
2023-11-07T16:03:06.854Z,39.80
2023-11-07T16:05:36.811Z,39.20
2023-11-07T16:08:07.642Z,40.50
2023-11-07T16:10:36.521Z,40.60
2023-11-07T16:13:05.010Z,41.20
2023-11-07T16:15:35.085Z,39.40
2023-11-07T16:18:03.874Z,40.50
2023-11-07T16:20:32.086Z,41.50
2023-11-07T16:23:00.373Z,41.90
2023-11-07T16:25:28.258Z,42.20
2023-11-07T16:27:56.192Z,43.00
2023-11-07T16:30:25.252Z,43.70
2023-11-07T16:32:54.786Z,44.10
2023-11-07T16:35:22.856Z,44.20
2023-11-07T16:37:52.821Z,45.20
2023-11-07T16:40:22.204Z,45.90
2023-11-07T16:42:52.984Z,46.10
2023-11-07T16:45:21.089Z,46.80
2023-11-07T16:47:49.996Z,47.20
2023-11-07T16:50:19.506Z,47.70
2023-11-07T16:52:47.444Z,47.70
2023-11-07T16:55:15.655Z,48.00
2023-11-07T16:57:45.587Z,48.30
2023-11-07T17:00:14.895Z,48.40
2023-11-07T17:02:43.457Z,48.60
2023-11-07T17:05:12.658Z,48.90
2023-11-07T17:07:42.023Z,48.60
2023-11-07T17:10:11.876Z,48.10
2023-11-07T17:12:40.358Z,47.90
2023-11-07T17:15:09.909Z,48.50
2023-11-07T17:17:38.505Z,48.60
2023-11-07T17:20:09.526Z,49.10
2023-11-07T17:22:38.691Z,48.70
2023-11-07T17:25:09.936Z,48.70
2023-11-07T17:27:37.918Z,49.10
2023-11-07T17:30:08.533Z,49.10
2023-11-07T17:32:36.805Z,49.10
2023-11-07T17:35:05.714Z,49.50
2023-11-07T17:37:33.756Z,50.00
2023-11-07T17:40:01.667Z,49.80
2023-11-07T17:42:30.945Z,50.30
2023-11-07T17:44:58.884Z,50.40
2023-11-07T17:47:29.743Z,50.90
2023-11-07T17:49:57.938Z,51.20
2023-11-07T17:52:26.050Z,51.40
2023-11-07T17:54:54.624Z,50.50
2023-11-07T17:57:22.770Z,50.30
2023-11-07T17:59:53.805Z,49.70
2023-11-07T18:02:23.967Z,50.60
2023-11-07T18:04:52.318Z,50.30
2023-11-07T18:07:21.119Z,49.70
2023-11-07T18:09:50.393Z,49.20
2023-11-07T18:12:19.277Z,49.20
2023-11-07T18:14:47.721Z,49.10
2023-11-07T18:17:16.976Z,48.90
2023-11-07T18:19:44.938Z,48.60
2023-11-07T18:22:13.211Z,48.40
2023-11-07T18:24:41.417Z,48.10
2023-11-07T18:27:09.404Z,48.00
2023-11-07T18:29:37.874Z,47.60
2023-11-07T18:32:07.994Z,47.10
2023-11-07T18:34:38.023Z,46.80
2023-11-07T18:37:07.645Z,46.60
2023-11-07T18:39:37.305Z,47.00
2023-11-07T18:42:06.025Z,47.30
2023-11-07T18:44:35.675Z,47.60
2023-11-07T18:47:04.457Z,47.30
2023-11-07T18:49:32.885Z,47.30
2023-11-07T18:52:03.698Z,47.00
2023-11-07T18:54:31.892Z,46.90
2023-11-07T18:57:00.128Z,46.50
2023-11-07T18:59:34.860Z,46.60
2023-11-07T19:02:07.574Z,46.90
2023-11-07T19:04:37.834Z,47.60
2023-11-07T19:07:08.356Z,47.90
2023-11-07T19:09:37.265Z,48.00
2023-11-07T19:12:05.763Z,48.70
2023-11-07T19:14:33.800Z,48.70
2023-11-07T19:17:01.765Z,48.50
2023-11-07T19:19:30.100Z,48.30
2023-11-07T19:21:58.870Z,48.20
2023-11-07T19:24:29.069Z,48.00
2023-11-07T19:26:57.192Z,47.30
2023-11-07T19:29:25.292Z,46.90
2023-11-07T19:31:55.417Z,46.90
2023-11-07T19:34:25.537Z,46.90
2023-11-07T19:36:56.118Z,46.90
2023-11-07T19:39:25.831Z,46.50
2023-11-07T19:42:00.042Z,45.50
2023-11-07T19:44:28.228Z,45.20
2023-11-07T19:46:56.744Z,45.30
2023-11-07T19:49:25.087Z,45.00
2023-11-07T19:51:53.071Z,44.90
2023-11-07T19:54:21.936Z,45.20
2023-11-07T19:56:49.925Z,44.50
2023-11-07T19:59:19.453Z,44.50
2023-11-07T20:01:47.418Z,44.50
2023-11-07T20:04:15.507Z,44.50
2023-11-07T20:06:44.203Z,42.40
2023-11-07T20:09:12.139Z,41.90
2023-11-07T20:11:40.077Z,42.80
2023-11-07T20:14:08.566Z,43.30
2023-11-07T20:16:38.309Z,43.40
2023-11-07T20:19:06.781Z,43.50
2023-11-07T20:21:34.821Z,43.60
2023-11-07T20:24:03.661Z,43.20
2023-11-07T20:26:31.649Z,41.40
2023-11-07T20:28:59.637Z,41.20
2023-11-07T20:31:27.583Z,41.40
2023-11-07T20:33:58.144Z,41.30
2023-11-07T20:36:26.520Z,40.20
2023-11-07T20:38:55.557Z,39.80
2023-11-07T20:41:23.505Z,39.80
2023-11-07T20:43:55.665Z,38.80
2023-11-07T20:46:33.630Z,38.50
2023-11-07T20:49:06.040Z,36.40
2023-11-07T20:51:36.196Z,36.40
2023-11-07T20:54:05.233Z,35.30
2023-11-07T20:56:33.693Z,34.70
2023-11-07T20:59:01.923Z,34.70
2023-11-07T21:01:29.822Z,34.30
2023-11-07T21:03:57.916Z,35.00
2023-11-07T21:06:27.525Z,34.70
2023-11-07T21:08:55.589Z,35.00
2023-11-07T21:11:23.891Z,34.30
2023-11-07T21:13:52.783Z,33.80
2023-11-07T21:16:21.391Z,33.70
2023-11-07T21:18:50.169Z,31.80
2023-11-07T21:21:18.374Z,31.90
2023-11-07T21:23:47.688Z,31.70
2023-11-07T21:26:15.766Z,32.40
2023-11-07T21:28:43.743Z,32.90
2023-11-07T21:31:11.939Z,32.80
2023-11-07T21:33:40.554Z,32.70
2023-11-07T21:36:08.709Z,33.20
2023-11-07T21:38:36.671Z,32.90
2023-11-07T21:41:06.738Z,32.30
2023-11-07T21:43:35.003Z,32.40
2023-11-07T21:46:04.178Z,32.30
2023-11-07T21:48:32.377Z,32.20
2023-11-07T21:51:00.511Z,32.00
2023-11-07T21:53:28.872Z,32.80
2023-11-07T21:55:57.956Z,31.80
2023-11-07T21:58:27.189Z,32.00
2023-11-07T22:00:55.130Z,32.80
2023-11-07T22:03:23.155Z,32.30
2023-11-07T22:05:51.190Z,32.40
2023-11-07T22:08:19.227Z,31.80
2023-11-07T22:10:48.937Z,31.20
2023-11-07T22:13:17.489Z,32.10
2023-11-07T22:15:47.046Z,31.70
2023-11-07T22:18:15.117Z,31.30
2023-11-07T22:20:43.189Z,31.80
2023-11-07T22:23:11.223Z,32.20
2023-11-07T22:25:39.212Z,32.50
2023-11-07T22:28:08.669Z,31.30
2023-11-07T22:30:37.169Z,31.70
2023-11-07T22:33:06.685Z,32.60
2023-11-07T22:35:35.568Z,33.20
2023-11-07T22:38:04.180Z,33.70
2023-11-07T22:40:32.378Z,33.60
2023-11-07T22:43:01.166Z,33.70
2023-11-07T22:45:29.299Z,33.70
2023-11-07T22:47:57.388Z,34.10
2023-11-07T22:50:26.707Z,34.40
2023-11-07T22:52:55.630Z,33.90
2023-11-07T22:55:24.063Z,33.40
2023-11-07T22:57:51.953Z,34.10
2023-11-07T23:00:29.113Z,34.20
2023-11-07T23:02:59.315Z,34.80
2023-11-07T23:05:28.961Z,35.00
2023-11-07T23:07:56.935Z,34.90
2023-11-07T23:10:25.021Z,34.90
2023-11-07T23:12:52.955Z,35.20
2023-11-07T23:15:20.949Z,33.70
2023-11-07T23:17:49.109Z,34.20
2023-11-07T23:20:19.878Z,34.90
2023-11-07T23:22:49.590Z,35.00
2023-11-07T23:25:17.738Z,34.90
2023-11-07T23:27:46.227Z,34.40
2023-11-07T23:30:14.907Z,35.20
2023-11-07T23:32:43.029Z,35.20
2023-11-07T23:35:12.140Z,34.30
2023-11-07T23:37:40.301Z,33.70
2023-11-07T23:40:12.605Z,34.70
2023-11-07T23:42:42.927Z,34.90
2023-11-07T23:45:11.913Z,36.40
2023-11-07T23:47:41.008Z,36.40
2023-11-07T23:50:10.054Z,36.40
2023-11-07T23:52:38.064Z,36.20
2023-11-07T23:55:07.596Z,36.50
2023-11-07T23:57:37.101Z,36.60
